sensor_id;sensor_type;location;lat;lon;timestamp;temperature;humidity
4431;DHT22;2228;48.140;11.488;2022-10-16T00:00:42;12.80;1.00
4431;DHT22;2228;48.140;11.488;2022-10-16T00:03:10;12.90;1.00
4431;DHT22;2228;48.140;11.488;2022-10-16T00:05:42;12.90;1.00
4431;DHT22;2228;48.140;11.488;2022-10-16T00:08:11;12.90;1.00
4431;DHT22;2228;48.140;11.488;2022-10-16T00:10:39;12.80;1.00
4431;DHT22;2228;48.140;11.488;2022-10-16T00:13:06;12.80;1.00
4431;DHT22;2228;48.140;11.488;2022-10-16T00:15:35;12.70;1.00
4431;DHT22;2228;48.140;11.488;2022-10-16T00:18:03;12.70;1.00
4431;DHT22;2228;48.140;11.488;2022-10-16T00:20:30;12.60;1.00
4431;DHT22;2228;48.140;11.488;2022-10-16T00:22:59;12.60;1.00
4431;DHT22;2228;48.140;11.488;2022-10-16T00:25:26;12.60;1.00
4431;DHT22;2228;48.140;11.488;2022-10-16T00:27:53;12.60;1.00
4431;DHT22;2228;48.140;11.488;2022-10-16T00:30:20;12.60;1.00
4431;DHT22;2228;48.140;11.488;2022-10-16T00:32:48;12.60;1.00
4431;DHT22;2228;48.140;11.488;2022-10-16T00:35:15;12.60;1.00
4431;DHT22;2228;48.140;11.488;2022-10-16T00:37:42;12.60;1.00
4431;DHT22;2228;48.140;11.488;2022-10-16T00:40:10;12.60;1.00
4431;DHT22;2228;48.140;11.488;2022-10-16T00:42:37;12.60;1.00
4431;DHT22;2228;48.140;11.488;2022-10-16T00:45:04;12.60;1.00
4431;DHT22;2228;48.140;11.488;2022-10-16T00:47:34;12.60;1.00
4431;DHT22;2228;48.140;11.488;2022-10-16T00:50:07;12.60;1.00
4431;DHT22;2228;48.140;11.488;2022-10-16T00:52:34;12.70;1.00
4431;DHT22;2228;48.140;11.488;2022-10-16T00:55:02;12.80;1.00
4431;DHT22;2228;48.140;11.488;2022-10-16T00:57:29;12.80;1.00
4431;DHT22;2228;48.140;11.488;2022-10-16T00:59:57;12.80;1.00
4431;DHT22;2228;48.140;11.488;2022-10-16T01:02:24;12.90;1.00
4431;DHT22;2228;48.140;11.488;2022-10-16T01:04:52;12.80;1.00
4431;DHT22;2228;48.140;11.488;2022-10-16T01:07:29;12.80;1.00
4431;DHT22;2228;48.140;11.488;2022-10-16T01:10:04;12.90;1.00
4431;DHT22;2228;48.140;11.488;2022-10-16T01:12:40;12.90;1.00
4431;DHT22;2228;48.140;11.488;2022-10-16T01:15:11;12.90;1.00
4431;DHT22;2228;48.140;11.488;2022-10-16T01:17:45;12.90;1.00
4431;DHT22;2228;48.140;11.488;2022-10-16T01:20:20;12.90;1.00
4431;DHT22;2228;48.140;11.488;2022-10-16T01:23:02;13.00;25.20
4431;DHT22;2228;48.140;11.488;2022-10-16T01:28:22;13.00;1.00
4431;DHT22;2228;48.140;11.488;2022-10-16T01:30:52;13.00;1.00
4431;DHT22;2228;48.140;11.488;2022-10-16T01:33:24;13.00;1.00
4431;DHT22;2228;48.140;11.488;2022-10-16T01:35:55;13.00;1.00
4431;DHT22;2228;48.140;11.488;2022-10-16T01:38:29;13.00;1.00
4431;DHT22;2228;48.140;11.488;2022-10-16T01:41:01;13.00;1.00
4431;DHT22;2228;48.140;11.488;2022-10-16T01:43:33;13.00;1.00
4431;DHT22;2228;48.140;11.488;2022-10-16T01:46:02;13.00;1.00
4431;DHT22;2228;48.140;11.488;2022-10-16T01:48:30;13.00;1.00
4431;DHT22;2228;48.140;11.488;2022-10-16T01:51:01;13.00;58.20
4431;DHT22;2228;48.140;11.488;2022-10-16T01:53:31;13.00;1.00
4431;DHT22;2228;48.140;11.488;2022-10-16T01:55:59;13.00;38.40
4431;DHT22;2228;48.140;11.488;2022-10-16T01:58:28;13.00;2.60
4431;DHT22;2228;48.140;11.488;2022-10-16T02:00:57;13.00;81.70
4431;DHT22;2228;48.140;11.488;2022-10-16T02:03:24;13.10;68.10
4431;DHT22;2228;48.140;11.488;2022-10-16T02:05:53;13.20;4.30
4431;DHT22;2228;48.140;11.488;2022-10-16T02:08:22;13.20;52.10
4431;DHT22;2228;48.140;11.488;2022-10-16T02:10:49;13.10;18.00
4431;DHT22;2228;48.140;11.488;2022-10-16T02:13:18;13.00;18.80
4431;DHT22;2228;48.140;11.488;2022-10-16T02:15:48;13.10;43.80
4431;DHT22;2228;48.140;11.488;2022-10-16T02:18:16;13.00;14.70
4431;DHT22;2228;48.140;11.488;2022-10-16T02:20:48;13.00;13.80
4431;DHT22;2228;48.140;11.488;2022-10-16T02:23:21;12.90;63.20
4431;DHT22;2228;48.140;11.488;2022-10-16T02:25:52;12.90;95.10
4431;DHT22;2228;48.140;11.488;2022-10-16T02:28:24;13.00;59.70
4431;DHT22;2228;48.140;11.488;2022-10-16T02:30:57;13.00;57.10
4431;DHT22;2228;48.140;11.488;2022-10-16T02:33:27;13.00;84.10
4431;DHT22;2228;48.140;11.488;2022-10-16T02:35:55;13.10;99.90
4431;DHT22;2228;48.140;11.488;2022-10-16T02:38:24;13.10;15.50
4431;DHT22;2228;48.140;11.488;2022-10-16T02:40:52;13.10;10.00
4431;DHT22;2228;48.140;11.488;2022-10-16T02:43:19;13.10;1.00
4431;DHT22;2228;48.140;11.488;2022-10-16T02:45:46;13.10;18.50
4431;DHT22;2228;48.140;11.488;2022-10-16T02:48:13;13.00;1.00
4431;DHT22;2228;48.140;11.488;2022-10-16T02:50:41;13.00;1.00
4431;DHT22;2228;48.140;11.488;2022-10-16T02:53:08;13.00;1.00
4431;DHT22;2228;48.140;11.488;2022-10-16T02:55:35;13.00;1.00
4431;DHT22;2228;48.140;11.488;2022-10-16T02:58:02;13.00;1.00
4431;DHT22;2228;48.140;11.488;2022-10-16T03:00:29;13.00;1.00
4431;DHT22;2228;48.140;11.488;2022-10-16T03:02:56;13.00;1.00
4431;DHT22;2228;48.140;11.488;2022-10-16T03:05:22;12.90;1.00
4431;DHT22;2228;48.140;11.488;2022-10-16T03:07:51;12.90;1.00
4431;DHT22;2228;48.140;11.488;2022-10-16T03:10:18;12.80;1.00
4431;DHT22;2228;48.140;11.488;2022-10-16T03:12:45;12.80;1.00
4431;DHT22;2228;48.140;11.488;2022-10-16T03:15:11;12.70;1.00
4431;DHT22;2228;48.140;11.488;2022-10-16T03:17:38;12.70;1.00
4431;DHT22;2228;48.140;11.488;2022-10-16T03:20:06;12.70;1.00
4431;DHT22;2228;48.140;11.488;2022-10-16T03:22:33;12.70;1.00
4431;DHT22;2228;48.140;11.488;2022-10-16T03:25:01;12.70;1.00
4431;DHT22;2228;48.140;11.488;2022-10-16T03:27:28;12.80;1.00
4431;DHT22;2228;48.140;11.488;2022-10-16T03:29:55;12.90;1.80
4431;DHT22;2228;48.140;11.488;2022-10-16T03:32:22;13.00;1.00
4431;DHT22;2228;48.140;11.488;2022-10-16T03:34:50;12.90;1.00
4431;DHT22;2228;48.140;11.488;2022-10-16T03:37:18;13.00;15.60
4431;DHT22;2228;48.140;11.488;2022-10-16T03:39:45;13.00;1.00
4431;DHT22;2228;48.140;11.488;2022-10-16T03:42:13;13.10;1.00
4431;DHT22;2228;48.140;11.488;2022-10-16T03:44:40;13.20;11.30
4431;DHT22;2228;48.140;11.488;2022-10-16T03:47:07;13.20;1.00
4431;DHT22;2228;48.140;11.488;2022-10-16T03:49:34;13.30;77.20
4431;DHT22;2228;48.140;11.488;2022-10-16T03:52:01;13.40;1.00
4431;DHT22;2228;48.140;11.488;2022-10-16T03:54:27;13.40;1.00
4431;DHT22;2228;48.140;11.488;2022-10-16T03:56:54;13.60;1.00
4431;DHT22;2228;48.140;11.488;2022-10-16T03:59:22;13.60;1.00
4431;DHT22;2228;48.140;11.488;2022-10-16T04:01:49;13.60;1.00
4431;DHT22;2228;48.140;11.488;2022-10-16T04:04:16;13.60;1.00
4431;DHT22;2228;48.140;11.488;2022-10-16T04:06:43;13.50;1.00
4431;DHT22;2228;48.140;11.488;2022-10-16T04:09:10;13.50;1.00
4431;DHT22;2228;48.140;11.488;2022-10-16T04:11:37;13.60;1.00
4431;DHT22;2228;48.140;11.488;2022-10-16T04:14:04;13.60;1.00
4431;DHT22;2228;48.140;11.488;2022-10-16T04:16:32;13.60;1.00
4431;DHT22;2228;48.140;11.488;2022-10-16T04:18:59;13.60;1.00
4431;DHT22;2228;48.140;11.488;2022-10-16T04:21:26;13.70;1.00
4431;DHT22;2228;48.140;11.488;2022-10-16T04:23:53;13.80;1.00
4431;DHT22;2228;48.140;11.488;2022-10-16T04:26:20;13.70;1.00
4431;DHT22;2228;48.140;11.488;2022-10-16T04:28:47;13.70;1.00
4431;DHT22;2228;48.140;11.488;2022-10-16T04:31:14;13.80;1.00
4431;DHT22;2228;48.140;11.488;2022-10-16T04:33:43;13.80;1.00
4431;DHT22;2228;48.140;11.488;2022-10-16T04:36:10;13.90;1.00
4431;DHT22;2228;48.140;11.488;2022-10-16T04:38:37;13.80;1.00
4431;DHT22;2228;48.140;11.488;2022-10-16T04:41:05;13.80;1.00
4431;DHT22;2228;48.140;11.488;2022-10-16T04:43:32;13.80;1.00
4431;DHT22;2228;48.140;11.488;2022-10-16T04:46:00;13.90;1.00
4431;DHT22;2228;48.140;11.488;2022-10-16T04:48:27;13.80;1.00
4431;DHT22;2228;48.140;11.488;2022-10-16T04:50:55;13.90;1.00
4431;DHT22;2228;48.140;11.488;2022-10-16T04:53:22;14.00;1.00
4431;DHT22;2228;48.140;11.488;2022-10-16T04:55:49;14.10;1.00
4431;DHT22;2228;48.140;11.488;2022-10-16T04:58:16;14.10;1.00
4431;DHT22;2228;48.140;11.488;2022-10-16T05:00:44;14.10;1.00
4431;DHT22;2228;48.140;11.488;2022-10-16T05:03:11;14.10;1.00
4431;DHT22;2228;48.140;11.488;2022-10-16T05:05:42;14.00;1.00
4431;DHT22;2228;48.140;11.488;2022-10-16T05:08:12;14.10;1.00
4431;DHT22;2228;48.140;11.488;2022-10-16T05:10:40;14.10;1.00
4431;DHT22;2228;48.140;11.488;2022-10-16T05:13:07;14.10;1.00
4431;DHT22;2228;48.140;11.488;2022-10-16T05:15:34;14.20;1.00
4431;DHT22;2228;48.140;11.488;2022-10-16T05:18:01;14.30;1.00
4431;DHT22;2228;48.140;11.488;2022-10-16T05:20:28;14.30;1.00
4431;DHT22;2228;48.140;11.488;2022-10-16T05:22:55;14.30;1.00
4431;DHT22;2228;48.140;11.488;2022-10-16T05:25:23;14.10;1.00
4431;DHT22;2228;48.140;11.488;2022-10-16T05:27:50;13.90;1.00
4431;DHT22;2228;48.140;11.488;2022-10-16T05:30:17;14.10;1.00
4431;DHT22;2228;48.140;11.488;2022-10-16T05:32:46;14.10;1.00
4431;DHT22;2228;48.140;11.488;2022-10-16T05:35:14;14.10;1.00
4431;DHT22;2228;48.140;11.488;2022-10-16T05:37:41;14.20;1.00
4431;DHT22;2228;48.140;11.488;2022-10-16T05:40:08;14.20;1.00
4431;DHT22;2228;48.140;11.488;2022-10-16T05:42:37;14.20;1.00
4431;DHT22;2228;48.140;11.488;2022-10-16T05:45:05;14.20;1.00
4431;DHT22;2228;48.140;11.488;2022-10-16T05:47:32;14.20;1.00
4431;DHT22;2228;48.140;11.488;2022-10-16T05:49:58;14.20;1.00
4431;DHT22;2228;48.140;11.488;2022-10-16T05:52:26;14.20;1.00
4431;DHT22;2228;48.140;11.488;2022-10-16T05:54:53;14.20;1.00
4431;DHT22;2228;48.140;11.488;2022-10-16T05:57:20;14.20;1.00
4431;DHT22;2228;48.140;11.488;2022-10-16T05:59:49;14.10;1.00
4431;DHT22;2228;48.140;11.488;2022-10-16T06:02:16;14.10;1.00
4431;DHT22;2228;48.140;11.488;2022-10-16T06:04:42;14.10;1.00
4431;DHT22;2228;48.140;11.488;2022-10-16T06:07:09;14.10;1.00
4431;DHT22;2228;48.140;11.488;2022-10-16T06:09:36;14.10;1.00
4431;DHT22;2228;48.140;11.488;2022-10-16T06:12:03;14.00;1.00
4431;DHT22;2228;48.140;11.488;2022-10-16T06:14:30;14.00;1.00
4431;DHT22;2228;48.140;11.488;2022-10-16T06:16:58;14.00;1.00
4431;DHT22;2228;48.140;11.488;2022-10-16T06:19:25;14.00;1.00
4431;DHT22;2228;48.140;11.488;2022-10-16T06:21:51;14.00;1.00
4431;DHT22;2228;48.140;11.488;2022-10-16T06:24:18;14.10;1.00
4431;DHT22;2228;48.140;11.488;2022-10-16T06:26:45;14.10;1.00
4431;DHT22;2228;48.140;11.488;2022-10-16T06:29:12;14.10;1.00
4431;DHT22;2228;48.140;11.488;2022-10-16T06:31:39;14.20;1.00
4431;DHT22;2228;48.140;11.488;2022-10-16T06:34:08;14.20;1.00
4431;DHT22;2228;48.140;11.488;2022-10-16T06:36:37;14.30;1.00
4431;DHT22;2228;48.140;11.488;2022-10-16T06:39:04;14.30;1.00
4431;DHT22;2228;48.140;11.488;2022-10-16T06:41:33;14.40;1.00
4431;DHT22;2228;48.140;11.488;2022-10-16T06:44:00;14.40;99.90
4431;DHT22;2228;48.140;11.488;2022-10-16T06:46:27;14.40;99.90
4431;DHT22;2228;48.140;11.488;2022-10-16T06:48:54;14.40;1.00
4431;DHT22;2228;48.140;11.488;2022-10-16T06:51:23;14.40;99.90
4431;DHT22;2228;48.140;11.488;2022-10-16T06:53:52;14.40;1.00
4431;DHT22;2228;48.140;11.488;2022-10-16T06:56:21;14.40;99.90
4431;DHT22;2228;48.140;11.488;2022-10-16T06:58:49;14.50;99.90
4431;DHT22;2228;48.140;11.488;2022-10-16T07:01:17;14.50;99.90
4431;DHT22;2228;48.140;11.488;2022-10-16T07:03:45;14.50;99.90
4431;DHT22;2228;48.140;11.488;2022-10-16T07:06:13;14.50;1.00
4431;DHT22;2228;48.140;11.488;2022-10-16T07:08:44;14.60;99.90
4431;DHT22;2228;48.140;11.488;2022-10-16T07:11:13;14.70;99.90
4431;DHT22;2228;48.140;11.488;2022-10-16T07:13:42;14.70;99.90
4431;DHT22;2228;48.140;11.488;2022-10-16T07:16:13;14.90;1.00
4431;DHT22;2228;48.140;11.488;2022-10-16T07:18:41;15.00;99.90
4431;DHT22;2228;48.140;11.488;2022-10-16T07:21:11;15.10;99.90
4431;DHT22;2228;48.140;11.488;2022-10-16T07:23:39;15.00;99.90
4431;DHT22;2228;48.140;11.488;2022-10-16T07:26:07;15.00;99.90
4431;DHT22;2228;48.140;11.488;2022-10-16T07:28:35;15.00;99.90
4431;DHT22;2228;48.140;11.488;2022-10-16T07:31:02;15.10;99.90
4431;DHT22;2228;48.140;11.488;2022-10-16T07:33:30;15.30;99.90
4431;DHT22;2228;48.140;11.488;2022-10-16T07:35:57;15.40;99.90
4431;DHT22;2228;48.140;11.488;2022-10-16T07:38:24;15.50;99.90
4431;DHT22;2228;48.140;11.488;2022-10-16T07:40:56;15.60;99.90
4431;DHT22;2228;48.140;11.488;2022-10-16T07:43:24;15.80;99.90
4431;DHT22;2228;48.140;11.488;2022-10-16T07:45:52;16.00;1.00
4431;DHT22;2228;48.140;11.488;2022-10-16T07:48:19;16.10;1.00
4431;DHT22;2228;48.140;11.488;2022-10-16T07:50:46;16.20;1.00
4431;DHT22;2228;48.140;11.488;2022-10-16T07:53:13;16.40;1.00
4431;DHT22;2228;48.140;11.488;2022-10-16T07:55:40;16.50;1.00
4431;DHT22;2228;48.140;11.488;2022-10-16T07:58:08;16.50;99.90
4431;DHT22;2228;48.140;11.488;2022-10-16T08:00:37;16.80;99.90
4431;DHT22;2228;48.140;11.488;2022-10-16T08:03:04;17.00;99.90
4431;DHT22;2228;48.140;11.488;2022-10-16T08:05:32;17.40;1.00
4431;DHT22;2228;48.140;11.488;2022-10-16T08:07:59;17.60;1.00
4431;DHT22;2228;48.140;11.488;2022-10-16T08:10:27;17.90;95.00
4431;DHT22;2228;48.140;11.488;2022-10-16T08:12:54;18.00;99.90
4431;DHT22;2228;48.140;11.488;2022-10-16T08:15:21;18.20;99.90
4431;DHT22;2228;48.140;11.488;2022-10-16T08:17:56;18.50;7.90
4431;DHT22;2228;48.140;11.488;2022-10-16T08:20:24;18.60;1.00
4431;DHT22;2228;48.140;11.488;2022-10-16T08:22:51;18.80;1.00
4431;DHT22;2228;48.140;11.488;2022-10-16T08:25:17;19.00;1.00
4431;DHT22;2228;48.140;11.488;2022-10-16T08:27:44;19.20;99.90
4431;DHT22;2228;48.140;11.488;2022-10-16T08:30:12;19.20;99.90
4431;DHT22;2228;48.140;11.488;2022-10-16T08:32:39;19.40;99.90
4431;DHT22;2228;48.140;11.488;2022-10-16T08:35:08;19.80;99.90
4431;DHT22;2228;48.140;11.488;2022-10-16T08:37:36;20.20;99.90
4431;DHT22;2228;48.140;11.488;2022-10-16T08:40:04;20.60;99.90
4431;DHT22;2228;48.140;11.488;2022-10-16T08:42:42;21.10;99.90
4431;DHT22;2228;48.140;11.488;2022-10-16T08:45:24;21.50;99.90
4431;DHT22;2228;48.140;11.488;2022-10-16T08:48:02;21.60;99.90
4431;DHT22;2228;48.140;11.488;2022-10-16T08:50:37;21.70;1.00
4431;DHT22;2228;48.140;11.488;2022-10-16T08:53:05;21.90;1.00
4431;DHT22;2228;48.140;11.488;2022-10-16T08:55:37;22.30;1.00
4431;DHT22;2228;48.140;11.488;2022-10-16T08:58:12;22.70;1.00
4431;DHT22;2228;48.140;11.488;2022-10-16T09:00:39;23.00;1.00
4431;DHT22;2228;48.140;11.488;2022-10-16T09:03:14;23.20;1.00
4431;DHT22;2228;48.140;11.488;2022-10-16T09:05:54;23.60;1.00
4431;DHT22;2228;48.140;11.488;2022-10-16T09:08:31;24.10;1.00
4431;DHT22;2228;48.140;11.488;2022-10-16T09:11:06;24.60;1.00
4431;DHT22;2228;48.140;11.488;2022-10-16T09:13:41;24.90;1.00
4431;DHT22;2228;48.140;11.488;2022-10-16T09:16:16;25.10;1.00
4431;DHT22;2228;48.140;11.488;2022-10-16T09:18:52;25.20;1.00
4431;DHT22;2228;48.140;11.488;2022-10-16T09:21:25;25.30;1.00
4431;DHT22;2228;48.140;11.488;2022-10-16T09:23:54;25.50;1.00
4431;DHT22;2228;48.140;11.488;2022-10-16T09:26:24;25.50;1.00
4431;DHT22;2228;48.140;11.488;2022-10-16T09:28:52;25.70;1.00
4431;DHT22;2228;48.140;11.488;2022-10-16T09:31:20;25.90;1.00
4431;DHT22;2228;48.140;11.488;2022-10-16T09:33:52;26.30;1.00
4431;DHT22;2228;48.140;11.488;2022-10-16T09:36:20;26.30;1.00
4431;DHT22;2228;48.140;11.488;2022-10-16T09:38:49;26.50;1.00
4431;DHT22;2228;48.140;11.488;2022-10-16T09:41:18;26.50;1.00
4431;DHT22;2228;48.140;11.488;2022-10-16T09:43:52;26.50;1.00
4431;DHT22;2228;48.140;11.488;2022-10-16T09:46:24;26.60;1.00
4431;DHT22;2228;48.140;11.488;2022-10-16T09:48:54;26.70;1.00
4431;DHT22;2228;48.140;11.488;2022-10-16T09:51:24;26.70;1.00
4431;DHT22;2228;48.140;11.488;2022-10-16T09:53:57;26.40;1.00
4431;DHT22;2228;48.140;11.488;2022-10-16T09:56:25;26.40;1.00
4431;DHT22;2228;48.140;11.488;2022-10-16T09:58:54;26.50;1.00
4431;DHT22;2228;48.140;11.488;2022-10-16T10:01:26;26.60;1.00
4431;DHT22;2228;48.140;11.488;2022-10-16T10:03:56;26.80;1.00
4431;DHT22;2228;48.140;11.488;2022-10-16T10:06:29;27.40;1.00
4431;DHT22;2228;48.140;11.488;2022-10-16T10:09:02;27.90;99.90
4431;DHT22;2228;48.140;11.488;2022-10-16T10:11:41;28.30;99.90
4431;DHT22;2228;48.140;11.488;2022-10-16T10:14:21;28.70;99.90
4431;DHT22;2228;48.140;11.488;2022-10-16T10:16:49;28.90;99.90
4431;DHT22;2228;48.140;11.488;2022-10-16T10:19:18;29.10;99.90
4431;DHT22;2228;48.140;11.488;2022-10-16T10:21:46;29.30;99.90
4431;DHT22;2228;48.140;11.488;2022-10-16T10:24:16;29.20;99.90
4431;DHT22;2228;48.140;11.488;2022-10-16T10:26:52;29.20;99.90
4431;DHT22;2228;48.140;11.488;2022-10-16T10:29:28;29.20;99.90
4431;DHT22;2228;48.140;11.488;2022-10-16T10:32:05;28.90;99.90
4431;DHT22;2228;48.140;11.488;2022-10-16T10:34:50;28.50;99.90
4431;DHT22;2228;48.140;11.488;2022-10-16T10:37:37;27.90;99.90
4431;DHT22;2228;48.140;11.488;2022-10-16T10:40:15;27.50;99.90
4431;DHT22;2228;48.140;11.488;2022-10-16T10:42:53;27.70;99.90
4431;DHT22;2228;48.140;11.488;2022-10-16T10:45:26;28.10;99.90
4431;DHT22;2228;48.140;11.488;2022-10-16T10:48:03;28.10;99.90
4431;DHT22;2228;48.140;11.488;2022-10-16T10:50:38;27.90;99.90
4431;DHT22;2228;48.140;11.488;2022-10-16T10:53:12;28.20;99.90
4431;DHT22;2228;48.140;11.488;2022-10-16T10:55:53;28.10;99.90
4431;DHT22;2228;48.140;11.488;2022-10-16T10:58:43;28.20;99.90
4431;DHT22;2228;48.140;11.488;2022-10-16T11:01:13;28.10;99.90
4431;DHT22;2228;48.140;11.488;2022-10-16T11:04:00;28.30;99.90
4431;DHT22;2228;48.140;11.488;2022-10-16T11:06:34;28.60;99.90
4431;DHT22;2228;48.140;11.488;2022-10-16T11:09:09;29.20;99.90
4431;DHT22;2228;48.140;11.488;2022-10-16T11:11:42;30.10;99.90
4431;DHT22;2228;48.140;11.488;2022-10-16T11:14:15;31.20;99.90
4431;DHT22;2228;48.140;11.488;2022-10-16T11:16:47;31.80;99.90
4431;DHT22;2228;48.140;11.488;2022-10-16T11:19:24;32.00;99.90
4431;DHT22;2228;48.140;11.488;2022-10-16T11:21:56;31.70;99.90
4431;DHT22;2228;48.140;11.488;2022-10-16T11:24:36;30.70;99.90
4431;DHT22;2228;48.140;11.488;2022-10-16T11:27:14;30.10;99.90
4431;DHT22;2228;48.140;11.488;2022-10-16T11:29:46;29.90;99.90
4431;DHT22;2228;48.140;11.488;2022-10-16T11:32:21;29.90;99.90
4431;DHT22;2228;48.140;11.488;2022-10-16T11:34:51;30.40;99.90
4431;DHT22;2228;48.140;11.488;2022-10-16T11:37:23;30.40;99.90
4431;DHT22;2228;48.140;11.488;2022-10-16T11:39:54;30.70;99.90
4431;DHT22;2228;48.140;11.488;2022-10-16T11:42:32;31.20;99.90
4431;DHT22;2228;48.140;11.488;2022-10-16T11:45:04;31.80;99.90
4431;DHT22;2228;48.140;11.488;2022-10-16T11:47:37;32.00;99.90
4431;DHT22;2228;48.140;11.488;2022-10-16T11:50:25;31.60;99.90
4431;DHT22;2228;48.140;11.488;2022-10-16T11:52:56;31.50;99.90
4431;DHT22;2228;48.140;11.488;2022-10-16T11:55:27;32.10;99.90
4431;DHT22;2228;48.140;11.488;2022-10-16T11:58:01;32.50;99.90
4431;DHT22;2228;48.140;11.488;2022-10-16T12:00:35;32.70;99.90
4431;DHT22;2228;48.140;11.488;2022-10-16T12:03:14;32.70;99.90
4431;DHT22;2228;48.140;11.488;2022-10-16T12:05:55;32.50;99.90
4431;DHT22;2228;48.140;11.488;2022-10-16T12:08:25;32.40;99.90
4431;DHT22;2228;48.140;11.488;2022-10-16T12:10:52;32.00;99.90
4431;DHT22;2228;48.140;11.488;2022-10-16T12:13:36;31.20;99.90
4431;DHT22;2228;48.140;11.488;2022-10-16T12:16:19;30.20;99.90
4431;DHT22;2228;48.140;11.488;2022-10-16T12:18:47;29.40;99.90
4431;DHT22;2228;48.140;11.488;2022-10-16T12:21:16;29.00;99.90
4431;DHT22;2228;48.140;11.488;2022-10-16T12:23:49;29.10;99.90
4431;DHT22;2228;48.140;11.488;2022-10-16T12:26:24;29.40;99.90
4431;DHT22;2228;48.140;11.488;2022-10-16T12:28:54;30.20;99.90
4431;DHT22;2228;48.140;11.488;2022-10-16T12:31:21;31.40;99.90
4431;DHT22;2228;48.140;11.488;2022-10-16T12:33:59;32.40;99.90
4431;DHT22;2228;48.140;11.488;2022-10-16T12:36:29;33.10;99.90
4431;DHT22;2228;48.140;11.488;2022-10-16T12:38:56;34.00;99.90
4431;DHT22;2228;48.140;11.488;2022-10-16T12:41:28;34.60;99.90
4431;DHT22;2228;48.140;11.488;2022-10-16T12:43:57;35.10;99.90
4431;DHT22;2228;48.140;11.488;2022-10-16T12:46:38;35.00;99.90
4431;DHT22;2228;48.140;11.488;2022-10-16T12:49:19;33.90;99.90
4431;DHT22;2228;48.140;11.488;2022-10-16T12:51:47;33.70;99.90
4431;DHT22;2228;48.140;11.488;2022-10-16T12:54:15;33.60;99.90
4431;DHT22;2228;48.140;11.488;2022-10-16T12:56:51;33.00;99.90
4431;DHT22;2228;48.140;11.488;2022-10-16T12:59:32;32.70;99.90
4431;DHT22;2228;48.140;11.488;2022-10-16T13:02:23;32.20;99.90
4431;DHT22;2228;48.140;11.488;2022-10-16T13:05:14;32.30;99.90
4431;DHT22;2228;48.140;11.488;2022-10-16T13:07:55;33.10;99.90
4431;DHT22;2228;48.140;11.488;2022-10-16T13:10:26;33.60;99.90
4431;DHT22;2228;48.140;11.488;2022-10-16T13:13:12;33.40;99.90
4431;DHT22;2228;48.140;11.488;2022-10-16T13:15:56;33.00;99.90
4431;DHT22;2228;48.140;11.488;2022-10-16T13:18:29;32.50;99.90
4431;DHT22;2228;48.140;11.488;2022-10-16T13:21:16;32.60;99.90
4431;DHT22;2228;48.140;11.488;2022-10-16T13:23:51;32.80;99.90
4431;DHT22;2228;48.140;11.488;2022-10-16T13:26:26;33.40;99.90
4431;DHT22;2228;48.140;11.488;2022-10-16T13:28:59;33.50;99.90
4431;DHT22;2228;48.140;11.488;2022-10-16T13:31:28;33.60;99.90
4431;DHT22;2228;48.140;11.488;2022-10-16T13:33:58;33.50;99.90
4431;DHT22;2228;48.140;11.488;2022-10-16T13:36:28;33.40;99.90
4431;DHT22;2228;48.140;11.488;2022-10-16T13:39:11;33.70;99.90
4431;DHT22;2228;48.140;11.488;2022-10-16T13:41:39;33.30;99.90
4431;DHT22;2228;48.140;11.488;2022-10-16T13:44:13;33.00;99.90
4431;DHT22;2228;48.140;11.488;2022-10-16T13:46:41;33.40;99.90
4431;DHT22;2228;48.140;11.488;2022-10-16T13:49:13;34.10;99.90
4431;DHT22;2228;48.140;11.488;2022-10-16T13:51:40;34.00;99.90
4431;DHT22;2228;48.140;11.488;2022-10-16T13:54:09;33.50;99.90
4431;DHT22;2228;48.140;11.488;2022-10-16T13:56:39;33.30;99.90
4431;DHT22;2228;48.140;11.488;2022-10-16T13:59:22;33.10;99.90
4431;DHT22;2228;48.140;11.488;2022-10-16T14:01:52;32.90;99.90
4431;DHT22;2228;48.140;11.488;2022-10-16T14:04:20;33.50;99.90
4431;DHT22;2228;48.140;11.488;2022-10-16T14:06:50;34.50;99.90
4431;DHT22;2228;48.140;11.488;2022-10-16T14:09:22;35.60;99.90
4431;DHT22;2228;48.140;11.488;2022-10-16T14:11:51;36.00;99.90
4431;DHT22;2228;48.140;11.488;2022-10-16T14:14:19;34.90;99.90
4431;DHT22;2228;48.140;11.488;2022-10-16T14:16:46;33.90;99.90
4431;DHT22;2228;48.140;11.488;2022-10-16T14:19:18;32.80;99.90
4431;DHT22;2228;48.140;11.488;2022-10-16T14:21:47;32.00;99.90
4431;DHT22;2228;48.140;11.488;2022-10-16T14:24:25;31.60;99.90
4431;DHT22;2228;48.140;11.488;2022-10-16T14:26:53;31.40;99.90
4431;DHT22;2228;48.140;11.488;2022-10-16T14:29:23;31.10;99.90
4431;DHT22;2228;48.140;11.488;2022-10-16T14:31:57;30.40;99.90
4431;DHT22;2228;48.140;11.488;2022-10-16T14:34:28;29.90;99.90
4431;DHT22;2228;48.140;11.488;2022-10-16T14:36:57;29.60;99.90
4431;DHT22;2228;48.140;11.488;2022-10-16T14:39:25;29.10;99.90
4431;DHT22;2228;48.140;11.488;2022-10-16T14:41:55;28.70;99.90
4431;DHT22;2228;48.140;11.488;2022-10-16T14:44:28;28.60;99.90
4431;DHT22;2228;48.140;11.488;2022-10-16T14:46:55;28.20;99.90
4431;DHT22;2228;48.140;11.488;2022-10-16T14:49:22;28.00;99.90
4431;DHT22;2228;48.140;11.488;2022-10-16T14:51:51;27.90;99.90
4431;DHT22;2228;48.140;11.488;2022-10-16T14:54:19;27.70;99.90
4431;DHT22;2228;48.140;11.488;2022-10-16T14:56:48;27.60;99.90
4431;DHT22;2228;48.140;11.488;2022-10-16T14:59:27;27.30;99.90
4431;DHT22;2228;48.140;11.488;2022-10-16T15:01:55;27.10;99.90
4431;DHT22;2228;48.140;11.488;2022-10-16T15:04:22;26.80;99.90
4431;DHT22;2228;48.140;11.488;2022-10-16T15:06:50;26.60;99.90
4431;DHT22;2228;48.140;11.488;2022-10-16T15:09:17;26.50;99.90
4431;DHT22;2228;48.140;11.488;2022-10-16T15:11:44;26.40;99.90
4431;DHT22;2228;48.140;11.488;2022-10-16T15:14:12;26.20;99.90
4431;DHT22;2228;48.140;11.488;2022-10-16T15:16:39;26.20;99.90
4431;DHT22;2228;48.140;11.488;2022-10-16T15:19:06;26.10;99.90
4431;DHT22;2228;48.140;11.488;2022-10-16T15:21:33;26.10;99.90
4431;DHT22;2228;48.140;11.488;2022-10-16T15:24:01;26.00;99.90
4431;DHT22;2228;48.140;11.488;2022-10-16T15:26:29;26.00;99.90
4431;DHT22;2228;48.140;11.488;2022-10-16T15:28:56;26.00;99.90
4431;DHT22;2228;48.140;11.488;2022-10-16T15:31:24;26.10;99.90
4431;DHT22;2228;48.140;11.488;2022-10-16T15:33:51;26.20;99.90
4431;DHT22;2228;48.140;11.488;2022-10-16T15:36:26;26.10;99.90
4431;DHT22;2228;48.140;11.488;2022-10-16T15:38:53;26.10;99.90
4431;DHT22;2228;48.140;11.488;2022-10-16T15:41:22;25.90;99.90
4431;DHT22;2228;48.140;11.488;2022-10-16T15:43:49;25.70;99.90
4431;DHT22;2228;48.140;11.488;2022-10-16T15:46:18;25.50;99.90
4431;DHT22;2228;48.140;11.488;2022-10-16T15:48:46;25.20;99.90
4431;DHT22;2228;48.140;11.488;2022-10-16T15:51:13;25.00;99.90
4431;DHT22;2228;48.140;11.488;2022-10-16T15:53:40;24.70;99.90
4431;DHT22;2228;48.140;11.488;2022-10-16T15:56:09;24.50;99.90
4431;DHT22;2228;48.140;11.488;2022-10-16T15:58:37;24.20;99.90
4431;DHT22;2228;48.140;11.488;2022-10-16T16:01:05;23.90;99.90
4431;DHT22;2228;48.140;11.488;2022-10-16T16:03:33;23.70;99.90
4431;DHT22;2228;48.140;11.488;2022-10-16T16:06:04;23.50;99.90
4431;DHT22;2228;48.140;11.488;2022-10-16T16:08:33;23.20;99.90
4431;DHT22;2228;48.140;11.488;2022-10-16T16:11:00;23.00;99.90
4431;DHT22;2228;48.140;11.488;2022-10-16T16:13:28;22.70;99.90